sensor_id;sensor_type;location;lat;lon;timestamp;P1;durP1;ratioP1;P2;durP2;ratioP2
12348;SDS011;5974;42.710;27.258;2023-07-22T00:02:15;9.40;;;7.87;;
12348;SDS011;5974;42.710;27.258;2023-07-22T00:04:41;9.23;;;8.30;;
12348;SDS011;5974;42.710;27.258;2023-07-22T00:07:10;8.57;;;7.67;;
12348;SDS011;5974;42.710;27.258;2023-07-22T00:09:37;8.00;;;7.40;;
12348;SDS011;5974;42.710;27.258;2023-07-22T00:12:09;8.50;;;7.60;;
12348;SDS011;5974;42.710;27.258;2023-07-22T00:14:38;9.90;;;7.60;;
12348;SDS011;5974;42.710;27.258;2023-07-22T00:17:08;11.10;;;8.23;;
12348;SDS011;5974;42.710;27.258;2023-07-22T00:19:35;10.43;;;7.87;;
12348;SDS011;5974;42.710;27.258;2023-07-22T00:22:02;9.93;;;8.10;;
12348;SDS011;5974;42.710;27.258;2023-07-22T00:24:31;8.83;;;7.97;;
12348;SDS011;5974;42.710;27.258;2023-07-22T00:26:57;11.97;;;8.03;;
12348;SDS011;5974;42.710;27.258;2023-07-22T00:29:24;12.27;;;8.40;;
12348;SDS011;5974;42.710;27.258;2023-07-22T00:31:51;9.13;;;8.20;;
12348;SDS011;5974;42.710;27.258;2023-07-22T00:34:19;10.53;;;8.30;;
12348;SDS011;5974;42.710;27.258;2023-07-22T00:36:48;11.33;;;8.00;;
12348;SDS011;5974;42.710;27.258;2023-07-22T00:39:15;11.53;;;8.33;;
12348;SDS011;5974;42.710;27.258;2023-07-22T00:41:41;9.17;;;8.27;;
12348;SDS011;5974;42.710;27.258;2023-07-22T00:44:09;10.90;;;8.53;;
12348;SDS011;5974;42.710;27.258;2023-07-22T00:46:37;10.50;;;9.20;;
12348;SDS011;5974;42.710;27.258;2023-07-22T00:49:05;9.77;;;8.73;;
12348;SDS011;5974;42.710;27.258;2023-07-22T00:51:34;9.53;;;8.60;;
12348;SDS011;5974;42.710;27.258;2023-07-22T00:54:01;9.63;;;8.57;;
12348;SDS011;5974;42.710;27.258;2023-07-22T00:56:29;11.57;;;8.87;;
12348;SDS011;5974;42.710;27.258;2023-07-22T00:58:59;12.50;;;8.70;;
12348;SDS011;5974;42.710;27.258;2023-07-22T01:01:26;12.10;;;8.93;;
12348;SDS011;5974;42.710;27.258;2023-07-22T01:03:53;10.07;;;8.33;;
12348;SDS011;5974;42.710;27.258;2023-07-22T01:06:21;9.10;;;8.20;;
12348;SDS011;5974;42.710;27.258;2023-07-22T01:08:51;11.90;;;8.47;;
12348;SDS011;5974;42.710;27.258;2023-07-22T01:11:18;12.80;;;9.53;;
12348;SDS011;5974;42.710;27.258;2023-07-22T01:13:44;11.07;;;9.23;;
12348;SDS011;5974;42.710;27.258;2023-07-22T01:16:11;11.53;;;9.63;;
12348;SDS011;5974;42.710;27.258;2023-07-22T01:18:38;9.50;;;8.60;;
12348;SDS011;5974;42.710;27.258;2023-07-22T01:21:06;9.83;;;8.83;;
12348;SDS011;5974;42.710;27.258;2023-07-22T01:23:35;11.70;;;8.50;;
12348;SDS011;5974;42.710;27.258;2023-07-22T01:26:02;9.67;;;8.70;;
12348;SDS011;5974;42.710;27.258;2023-07-22T01:28:29;10.00;;;8.97;;
12348;SDS011;5974;42.710;27.258;2023-07-22T01:30:56;10.40;;;8.70;;
12348;SDS011;5974;42.710;27.258;2023-07-22T01:33:23;12.30;;;9.27;;
12348;SDS011;5974;42.710;27.258;2023-07-22T01:35:52;12.57;;;8.53;;
12348;SDS011;5974;42.710;27.258;2023-07-22T01:38:18;8.97;;;8.17;;
12348;SDS011;5974;42.710;27.258;2023-07-22T01:40:47;9.00;;;8.10;;
12348;SDS011;5974;42.710;27.258;2023-07-22T01:43:14;13.00;;;8.40;;
12348;SDS011;5974;42.710;27.258;2023-07-22T01:45:41;9.20;;;8.30;;
12348;SDS011;5974;42.710;27.258;2023-07-22T01:48:08;9.07;;;8.13;;
12348;SDS011;5974;42.710;27.258;2023-07-22T01:50:35;9.03;;;7.93;;
12348;SDS011;5974;42.710;27.258;2023-07-22T01:53:02;13.80;;;8.27;;
12348;SDS011;5974;42.710;27.258;2023-07-22T01:55:30;9.00;;;8.07;;
12348;SDS011;5974;42.710;27.258;2023-07-22T01:58:00;8.87;;;7.93;;
12348;SDS011;5974;42.710;27.258;2023-07-22T02:00:27;8.87;;;7.97;;
12348;SDS011;5974;42.710;27.258;2023-07-22T02:02:54;8.57;;;7.73;;
12348;SDS011;5974;42.710;27.258;2023-07-22T02:05:21;8.43;;;7.27;;
12348;SDS011;5974;42.710;27.258;2023-07-22T02:07:48;9.17;;;8.27;;
12348;SDS011;5974;42.710;27.258;2023-07-22T02:10:15;8.67;;;7.87;;
12348;SDS011;5974;42.710;27.258;2023-07-22T02:12:42;8.60;;;7.80;;
12348;SDS011;5974;42.710;27.258;2023-07-22T02:15:10;12.90;;;8.67;;
12348;SDS011;5974;42.710;27.258;2023-07-22T02:17:37;11.67;;;9.07;;
12348;SDS011;5974;42.710;27.258;2023-07-22T02:20:04;9.80;;;8.80;;
12348;SDS011;5974;42.710;27.258;2023-07-22T02:22:34;8.83;;;8.07;;
12348;SDS011;5974;42.710;27.258;2023-07-22T02:25:01;9.93;;;8.23;;
12348;SDS011;5974;42.710;27.258;2023-07-22T02:27:28;12.13;;;9.00;;
12348;SDS011;5974;42.710;27.258;2023-07-22T02:29:55;12.13;;;9.77;;
12348;SDS011;5974;42.710;27.258;2023-07-22T02:32:23;10.50;;;9.50;;
12348;SDS011;5974;42.710;27.258;2023-07-22T02:34:50;13.83;;;10.20;;
12348;SDS011;5974;42.710;27.258;2023-07-22T02:37:17;11.13;;;9.63;;
12348;SDS011;5974;42.710;27.258;2023-07-22T02:39:44;12.30;;;9.73;;
12348;SDS011;5974;42.710;27.258;2023-07-22T02:42:14;10.37;;;9.40;;
12348;SDS011;5974;42.710;27.258;2023-07-22T02:44:41;12.17;;;9.67;;
12348;SDS011;5974;42.710;27.258;2023-07-22T02:47:08;16.07;;;9.80;;
12348;SDS011;5974;42.710;27.258;2023-07-22T02:49:36;11.87;;;9.70;;
12348;SDS011;5974;42.710;27.258;2023-07-22T02:52:03;11.43;;;9.40;;
12348;SDS011;5974;42.710;27.258;2023-07-22T02:54:30;11.50;;;9.80;;
12348;SDS011;5974;42.710;27.258;2023-07-22T02:56:57;10.83;;;9.77;;
12348;SDS011;5974;42.710;27.258;2023-07-22T02:59:25;10.83;;;9.73;;
12348;SDS011;5974;42.710;27.258;2023-07-22T03:01:52;12.70;;;10.67;;
12348;SDS011;5974;42.710;27.258;2023-07-22T03:04:19;11.40;;;9.47;;
12348;SDS011;5974;42.710;27.258;2023-07-22T03:06:47;10.57;;;9.43;;
12348;SDS011;5974;42.710;27.258;2023-07-22T03:09:16;12.10;;;10.07;;
12348;SDS011;5974;42.710;27.258;2023-07-22T03:11:43;12.50;;;10.37;;
12348;SDS011;5974;42.710;27.258;2023-07-22T03:14:10;12.47;;;10.47;;
12348;SDS011;5974;42.710;27.258;2023-07-22T03:16:36;13.00;;;10.97;;
12348;SDS011;5974;42.710;27.258;2023-07-22T03:19:03;12.60;;;10.03;;
12348;SDS011;5974;42.710;27.258;2023-07-22T03:21:30;13.10;;;10.20;;
12348;SDS011;5974;42.710;27.258;2023-07-22T03:23:58;11.23;;;10.07;;
12348;SDS011;5974;42.710;27.258;2023-07-22T03:26:25;10.17;;;9.10;;
12348;SDS011;5974;42.710;27.258;2023-07-22T03:28:52;10.93;;;9.10;;
12348;SDS011;5974;42.710;27.258;2023-07-22T03:31:19;11.70;;;9.73;;
12348;SDS011;5974;42.710;27.258;2023-07-22T03:33:46;11.50;;;10.47;;
12348;SDS011;5974;42.710;27.258;2023-07-22T03:36:15;13.13;;;11.20;;
12348;SDS011;5974;42.710;27.258;2023-07-22T03:38:42;11.60;;;9.97;;
12348;SDS011;5974;42.710;27.258;2023-07-22T03:41:13;10.70;;;9.33;;
12348;SDS011;5974;42.710;27.258;2023-07-22T03:43:39;11.93;;;9.07;;
12348;SDS011;5974;42.710;27.258;2023-07-22T03:46:07;12.57;;;9.63;;
12348;SDS011;5974;42.710;27.258;2023-07-22T03:48:33;9.97;;;8.97;;
12348;SDS011;5974;42.710;27.258;2023-07-22T03:51:00;10.07;;;8.60;;
12348;SDS011;5974;42.710;27.258;2023-07-22T03:53:27;10.00;;;8.87;;
12348;SDS011;5974;42.710;27.258;2023-07-22T03:55:56;9.93;;;9.00;;
12348;SDS011;5974;42.710;27.258;2023-07-22T03:58:24;12.00;;;9.13;;
12348;SDS011;5974;42.710;27.258;2023-07-22T04:00:51;9.37;;;8.23;;
12348;SDS011;5974;42.710;27.258;2023-07-22T04:03:18;9.37;;;8.47;;
12348;SDS011;5974;42.710;27.258;2023-07-22T04:05:52;10.20;;;9.33;;
12348;SDS011;5974;42.710;27.258;2023-07-22T04:08:20;12.17;;;9.37;;
12348;SDS011;5974;42.710;27.258;2023-07-22T04:10:50;14.00;;;9.80;;
12348;SDS011;5974;42.710;27.258;2023-07-22T04:13:17;11.43;;;9.57;;
12348;SDS011;5974;42.710;27.258;2023-07-22T04:15:45;10.33;;;9.33;;
12348;SDS011;5974;42.710;27.258;2023-07-22T04:18:12;10.50;;;9.47;;
12348;SDS011;5974;42.710;27.258;2023-07-22T04:20:39;14.10;;;9.10;;
12348;SDS011;5974;42.710;27.258;2023-07-22T04:23:06;13.07;;;9.27;;
12348;SDS011;5974;42.710;27.258;2023-07-22T04:25:33;14.03;;;10.27;;
12348;SDS011;5974;42.710;27.258;2023-07-22T04:28:04;16.40;;;9.40;;
12348;SDS011;5974;42.710;27.258;2023-07-22T04:30:31;13.10;;;9.70;;
12348;SDS011;5974;42.710;27.258;2023-07-22T04:32:59;12.50;;;9.33;;
12348;SDS011;5974;42.710;27.258;2023-07-22T04:35:26;14.57;;;9.50;;
12348;SDS011;5974;42.710;27.258;2023-07-22T04:37:53;12.30;;;9.30;;
12348;SDS011;5974;42.710;27.258;2023-07-22T04:40:21;10.30;;;9.30;;
12348;SDS011;5974;42.710;27.258;2023-07-22T04:42:50;10.63;;;9.50;;
12348;SDS011;5974;42.710;27.258;2023-07-22T04:45:17;9.60;;;8.67;;
12348;SDS011;5974;42.710;27.258;2023-07-22T04:47:44;10.73;;;9.07;;
12348;SDS011;5974;42.710;27.258;2023-07-22T04:50:13;9.47;;;8.40;;
12348;SDS011;5974;42.710;27.258;2023-07-22T04:52:41;9.70;;;8.43;;
12348;SDS011;5974;42.710;27.258;2023-07-22T04:55:09;14.27;;;11.73;;
12348;SDS011;5974;42.710;27.258;2023-07-22T04:57:38;13.93;;;11.07;;
12348;SDS011;5974;42.710;27.258;2023-07-22T05:00:06;15.43;;;12.17;;
12348;SDS011;5974;42.710;27.258;2023-07-22T05:02:35;12.73;;;11.47;;
12348;SDS011;5974;42.710;27.258;2023-07-22T05:05:01;11.80;;;9.77;;
12348;SDS011;5974;42.710;27.258;2023-07-22T05:07:30;10.43;;;9.43;;
12348;SDS011;5974;42.710;27.258;2023-07-22T05:09:57;11.15;;;8.95;;
12348;SDS011;5974;42.710;27.258;2023-07-22T05:12:24;12.70;;;8.52;;
12348;SDS011;5974;42.710;27.258;2023-07-22T05:14:51;8.98;;;7.07;;
12348;SDS011;5974;42.710;27.258;2023-07-22T05:17:20;8.23;;;7.53;;
12348;SDS011;5974;42.710;27.258;2023-07-22T05:19:47;9.32;;;8.15;;
12348;SDS011;5974;42.710;27.258;2023-07-22T05:22:14;9.68;;;7.45;;
12348;SDS011;5974;42.710;27.258;2023-07-22T05:24:43;9.30;;;8.27;;
12348;SDS011;5974;42.710;27.258;2023-07-22T05:27:10;9.48;;;8.55;;
12348;SDS011;5974;42.710;27.258;2023-07-22T05:29:37;11.52;;;8.60;;
12348;SDS011;5974;42.710;27.258;2023-07-22T05:32:06;10.93;;;8.30;;
12348;SDS011;5974;42.710;27.258;2023-07-22T05:34:35;10.52;;;8.32;;
12348;SDS011;5974;42.710;27.258;2023-07-22T05:37:02;10.85;;;8.38;;
12348;SDS011;5974;42.710;27.258;2023-07-22T05:39:29;8.90;;;7.95;;
12348;SDS011;5974;42.710;27.258;2023-07-22T05:41:57;8.50;;;7.40;;
12348;SDS011;5974;42.710;27.258;2023-07-22T05:44:24;9.60;;;8.02;;
12348;SDS011;5974;42.710;27.258;2023-07-22T05:46:51;10.32;;;7.25;;
12348;SDS011;5974;42.710;27.258;2023-07-22T05:49:18;10.57;;;6.82;;
12348;SDS011;5974;42.710;27.258;2023-07-22T05:51:45;7.88;;;7.07;;
12348;SDS011;5974;42.710;27.258;2023-07-22T05:54:12;8.05;;;7.25;;
12348;SDS011;5974;42.710;27.258;2023-07-22T05:56:42;11.05;;;7.65;;
12348;SDS011;5974;42.710;27.258;2023-07-22T05:59:10;11.82;;;6.85;;
12348;SDS011;5974;42.710;27.258;2023-07-22T06:01:37;9.68;;;6.38;;
12348;SDS011;5974;42.710;27.258;2023-07-22T06:04:04;6.82;;;5.70;;
12348;SDS011;5974;42.710;27.258;2023-07-22T06:06:31;6.60;;;4.78;;
12348;SDS011;5974;42.710;27.258;2023-07-22T06:08:58;5.03;;;4.50;;
12348;SDS011;5974;42.710;27.258;2023-07-22T06:11:24;7.20;;;4.57;;
12348;SDS011;5974;42.710;27.258;2023-07-22T06:13:53;5.30;;;4.35;;
12348;SDS011;5974;42.710;27.258;2023-07-22T06:16:21;7.35;;;4.78;;
12348;SDS011;5974;42.710;27.258;2023-07-22T06:18:48;5.47;;;4.53;;
12348;SDS011;5974;42.710;27.258;2023-07-22T06:21:15;7.30;;;4.25;;
12348;SDS011;5974;42.710;27.258;2023-07-22T06:23:42;7.72;;;4.85;;
12348;SDS011;5974;42.710;27.258;2023-07-22T06:26:09;5.30;;;4.40;;
12348;SDS011;5974;42.710;27.258;2023-07-22T06:28:35;5.85;;;4.57;;
12348;SDS011;5974;42.710;27.258;2023-07-22T06:31:02;5.80;;;5.25;;
12348;SDS011;5974;42.710;27.258;2023-07-22T06:33:30;5.72;;;5.22;;
12348;SDS011;5974;42.710;27.258;2023-07-22T06:35:58;5.75;;;4.45;;
12348;SDS011;5974;42.710;27.258;2023-07-22T06:38:25;10.82;;;5.32;;
12348;SDS011;5974;42.710;27.258;2023-07-22T06:40:52;7.63;;;5.07;;
12348;SDS011;5974;42.710;27.258;2023-07-22T06:43:19;6.75;;;5.30;;
12348;SDS011;5974;42.710;27.258;2023-07-22T06:45:46;7.20;;;5.25;;
12348;SDS011;5974;42.710;27.258;2023-07-22T06:48:13;6.00;;;4.82;;
12348;SDS011;5974;42.710;27.258;2023-07-22T06:50:46;7.53;;;5.10;;
12348;SDS011;5974;42.710;27.258;2023-07-22T06:53:13;6.70;;;5.13;;
12348;SDS011;5974;42.710;27.258;2023-07-22T06:55:47;6.30;;;5.03;;
12348;SDS011;5974;42.710;27.258;2023-07-22T06:58:15;5.25;;;4.50;;
12348;SDS011;5974;42.710;27.258;2023-07-22T07:00:42;6.95;;;4.70;;
12348;SDS011;5974;42.710;27.258;2023-07-22T07:03:08;5.03;;;4.63;;
12348;SDS011;5974;42.710;27.258;2023-07-22T07:05:37;6.10;;;4.22;;
12348;SDS011;5974;42.710;27.258;2023-07-22T07:08:07;4.90;;;4.40;;
12348;SDS011;5974;42.710;27.258;2023-07-22T07:10:38;6.72;;;4.57;;
12348;SDS011;5974;42.710;27.258;2023-07-22T07:13:05;7.25;;;4.63;;
12348;SDS011;5974;42.710;27.258;2023-07-22T07:15:32;7.20;;;4.35;;
12348;SDS011;5974;42.710;27.258;2023-07-22T07:17:59;7.50;;;4.22;;
12348;SDS011;5974;42.710;27.258;2023-07-22T07:20:27;4.90;;;4.40;;
12348;SDS011;5974;42.710;27.258;2023-07-22T07:22:54;4.60;;;4.20;;
12348;SDS011;5974;42.710;27.258;2023-07-22T07:25:24;7.47;;;4.70;;
12348;SDS011;5974;42.710;27.258;2023-07-22T07:27:50;5.05;;;4.68;;
12348;SDS011;5974;42.710;27.258;2023-07-22T07:30:17;9.60;;;4.55;;
12348;SDS011;5974;42.710;27.258;2023-07-22T07:32:45;6.55;;;4.95;;
12348;SDS011;5974;42.710;27.258;2023-07-22T07:35:11;6.75;;;5.18;;
12348;SDS011;5974;42.710;27.258;2023-07-22T07:37:38;5.93;;;4.63;;
12348;SDS011;5974;42.710;27.258;2023-07-22T07:40:06;7.00;;;4.80;;
12348;SDS011;5974;42.710;27.258;2023-07-22T07:42:35;7.10;;;4.40;;
12348;SDS011;5974;42.710;27.258;2023-07-22T07:45:02;5.70;;;5.07;;
12348;SDS011;5974;42.710;27.258;2023-07-22T07:47:29;7.32;;;4.80;;
12348;SDS011;5974;42.710;27.258;2023-07-22T07:49:56;4.63;;;4.18;;
12348;SDS011;5974;42.710;27.258;2023-07-22T07:52:23;4.97;;;4.28;;
12348;SDS011;5974;42.710;27.258;2023-07-22T07:54:50;6.70;;;4.43;;
12348;SDS011;5974;42.710;27.258;2023-07-22T07:57:17;7.40;;;4.90;;
12348;SDS011;5974;42.710;27.258;2023-07-22T07:59:45;6.85;;;4.53;;
12348;SDS011;5974;42.710;27.258;2023-07-22T08:02:12;4.35;;;3.92;;
12348;SDS011;5974;42.710;27.258;2023-07-22T08:04:39;5.80;;;4.70;;
12348;SDS011;5974;42.710;27.258;2023-07-22T08:07:06;5.47;;;4.22;;
12348;SDS011;5974;42.710;27.258;2023-07-22T08:09:34;6.18;;;3.92;;
12348;SDS011;5974;42.710;27.258;2023-07-22T08:12:01;4.50;;;4.10;;
12348;SDS011;5974;42.710;27.258;2023-07-22T08:14:28;9.35;;;4.32;;
12348;SDS011;5974;42.710;27.258;2023-07-22T08:16:56;7.55;;;4.18;;
12348;SDS011;5974;42.710;27.258;2023-07-22T08:19:23;7.82;;;4.65;;
12348;SDS011;5974;42.710;27.258;2023-07-22T08:21:50;8.63;;;5.03;;
12348;SDS011;5974;42.710;27.258;2023-07-22T08:24:17;8.90;;;4.50;;
12348;SDS011;5974;42.710;27.258;2023-07-22T08:26:45;7.18;;;4.55;;
12348;SDS011;5974;42.710;27.258;2023-07-22T08:29:12;10.77;;;4.75;;
12348;SDS011;5974;42.710;27.258;2023-07-22T08:31:39;6.15;;;4.20;;
12348;SDS011;5974;42.710;27.258;2023-07-22T08:34:08;6.18;;;4.35;;
12348;SDS011;5974;42.710;27.258;2023-07-22T08:36:34;6.75;;;4.70;;
12348;SDS011;5974;42.710;27.258;2023-07-22T08:39:02;10.05;;;4.95;;
12348;SDS011;5974;42.710;27.258;2023-07-22T08:41:29;6.10;;;3.90;;
12348;SDS011;5974;42.710;27.258;2023-07-22T08:43:56;7.28;;;4.60;;
12348;SDS011;5974;42.710;27.258;2023-07-22T08:46:27;9.85;;;4.93;;
12348;SDS011;5974;42.710;27.258;2023-07-22T08:48:55;6.40;;;4.25;;
12348;SDS011;5974;42.710;27.258;2023-07-22T08:51:26;4.65;;;4.10;;
12348;SDS011;5974;42.710;27.258;2023-07-22T08:53:54;6.03;;;4.60;;
12348;SDS011;5974;42.710;27.258;2023-07-22T08:56:23;6.53;;;4.20;;
12348;SDS011;5974;42.710;27.258;2023-07-22T08:58:50;5.40;;;4.80;;
12348;SDS011;5974;42.710;27.258;2023-07-22T09:01:18;7.07;;;4.30;;
12348;SDS011;5974;42.710;27.258;2023-07-22T09:03:45;4.90;;;4.32;;
12348;SDS011;5974;42.710;27.258;2023-07-22T09:06:13;5.30;;;4.38;;
12348;SDS011;5974;42.710;27.258;2023-07-22T09:08:42;5.50;;;4.60;;
12348;SDS011;5974;42.710;27.258;2023-07-22T09:11:11;9.10;;;4.35;;
12348;SDS011;5974;42.710;27.258;2023-07-22T09:13:38;6.80;;;4.72;;
12348;SDS011;5974;42.710;27.258;2023-07-22T09:16:08;7.43;;;4.53;;
12348;SDS011;5974;42.710;27.258;2023-07-22T09:18:36;8.27;;;4.55;;
12348;SDS011;5974;42.710;27.258;2023-07-22T09:21:03;7.90;;;4.93;;
12348;SDS011;5974;42.710;27.258;2023-07-22T09:23:33;9.52;;;5.22;;
12348;SDS011;5974;42.710;27.258;2023-07-22T09:26:12;8.57;;;5.05;;
12348;SDS011;5974;42.710;27.258;2023-07-22T09:28:50;8.30;;;4.40;;
12348;SDS011;5974;42.710;27.258;2023-07-22T09:31:18;5.35;;;4.20;;
12348;SDS011;5974;42.710;27.258;2023-07-22T09:33:46;8.95;;;4.60;;
12348;SDS011;5974;42.710;27.258;2023-07-22T09:36:13;5.50;;;4.50;;
12348;SDS011;5974;42.710;27.258;2023-07-22T09:38:40;6.35;;;4.82;;
12348;SDS011;5974;42.710;27.258;2023-07-22T09:41:06;11.55;;;4.88;;
12348;SDS011;5974;42.710;27.258;2023-07-22T09:43:37;7.53;;;4.68;;
12348;SDS011;5974;42.710;27.258;2023-07-22T09:46:08;7.93;;;4.57;;
12348;SDS011;5974;42.710;27.258;2023-07-22T09:48:42;8.82;;;5.00;;
12348;SDS011;5974;42.710;27.258;2023-07-22T09:51:13;8.35;;;4.80;;
12348;SDS011;5974;42.710;27.258;2023-07-22T09:53:47;7.15;;;4.63;;
12348;SDS011;5974;42.710;27.258;2023-07-22T09:56:25;5.30;;;4.75;;
12348;SDS011;5974;42.710;27.258;2023-07-22T09:58:53;7.05;;;5.20;;
12348;SDS011;5974;42.710;27.258;2023-07-22T10:01:23;14.50;;;5.18;;
12348;SDS011;5974;42.710;27.258;2023-07-22T10:03:53;7.00;;;4.55;;
12348;SDS011;5974;42.710;27.258;2023-07-22T10:06:21;7.07;;;4.80;;
12348;SDS011;5974;42.710;27.258;2023-07-22T10:08:52;6.28;;;4.60;;
12348;SDS011;5974;42.710;27.258;2023-07-22T10:11:21;7.32;;;4.93;;
12348;SDS011;5974;42.710;27.258;2023-07-22T10:13:51;7.75;;;4.75;;
12348;SDS011;5974;42.710;27.258;2023-07-22T10:16:22;9.05;;;5.10;;
12348;SDS011;5974;42.710;27.258;2023-07-22T10:18:50;9.23;;;4.95;;
12348;SDS011;5974;42.710;27.258;2023-07-22T10:21:17;7.63;;;4.80;;
12348;SDS011;5974;42.710;27.258;2023-07-22T10:23:45;10.18;;;5.07;;
12348;SDS011;5974;42.710;27.258;2023-07-22T10:26:13;9.05;;;5.43;;
12348;SDS011;5974;42.710;27.258;2023-07-22T10:28:41;6.85;;;4.97;;
12348;SDS011;5974;42.710;27.258;2023-07-22T10:31:11;7.75;;;5.20;;
12348;SDS011;5974;42.710;27.258;2023-07-22T10:33:39;9.70;;;5.18;;
12348;SDS011;5974;42.710;27.258;2023-07-22T10:36:06;10.10;;;5.20;;
12348;SDS011;5974;42.710;27.258;2023-07-22T10:38:41;8.98;;;5.20;;
12348;SDS011;5974;42.710;27.258;2023-07-22T10:41:11;10.10;;;5.10;;
12348;SDS011;5974;42.710;27.258;2023-07-22T10:43:39;9.45;;;5.05;;
12348;SDS011;5974;42.710;27.258;2023-07-22T10:46:08;13.43;;;5.05;;
12348;SDS011;5974;42.710;27.258;2023-07-22T10:48:39;7.70;;;5.18;;
12348;SDS011;5974;42.710;27.258;2023-07-22T10:51:07;8.55;;;5.03;;
12348;SDS011;5974;42.710;27.258;2023-07-22T10:53:40;8.48;;;5.05;;
12348;SDS011;5974;42.710;27.258;2023-07-22T10:56:12;8.65;;;4.85;;
12348;SDS011;5974;42.710;27.258;2023-07-22T10:58:55;8.65;;;4.80;;
12348;SDS011;5974;42.710;27.258;2023-07-22T11:01:24;11.93;;;5.03;;
12348;SDS011;5974;42.710;27.258;2023-07-22T11:04:11;13.27;;;5.03;;
12348;SDS011;5974;42.710;27.258;2023-07-22T11:06:56;7.30;;;4.50;;
12348;SDS011;5974;42.710;27.258;2023-07-22T11:09:34;10.88;;;4.90;;
12348;SDS011;5974;42.710;27.258;2023-07-22T11:12:03;8.50;;;4.65;;
12348;SDS011;5974;42.710;27.258;2023-07-22T11:14:32;12.88;;;5.07;;
12348;SDS011;5974;42.710;27.258;2023-07-22T11:17:00;9.32;;;4.72;;
12348;SDS011;5974;42.710;27.258;2023-07-22T11:19:30;10.45;;;4.63;;
12348;SDS011;5974;42.710;27.258;2023-07-22T11:21:58;10.88;;;4.53;;
12348;SDS011;5974;42.710;27.258;2023-07-22T11:24:26;8.85;;;4.35;;
12348;SDS011;5974;42.710;27.258;2023-07-22T11:26:53;7.82;;;4.35;;
12348;SDS011;5974;42.710;27.258;2023-07-22T11:29:20;7.97;;;5.05;;
12348;SDS011;5974;42.710;27.258;2023-07-22T11:31:48;9.52;;;4.80;;
12348;SDS011;5974;42.710;27.258;2023-07-22T11:34:17;12.00;;;4.50;;
12348;SDS011;5974;42.710;27.258;2023-07-22T11:36:46;7.65;;;4.43;;
12348;SDS011;5974;42.710;27.258;2023-07-22T11:39:15;12.65;;;4.72;;
12348;SDS011;5974;42.710;27.258;2023-07-22T11:41:44;9.95;;;4.40;;
12348;SDS011;5974;42.710;27.258;2023-07-22T11:44:12;7.28;;;4.57;;
12348;SDS011;5974;42.710;27.258;2023-07-22T11:46:47;9.63;;;4.93;;
12348;SDS011;5974;42.710;27.258;2023-07-22T11:49:22;10.77;;;4.43;;
12348;SDS011;5974;42.710;27.258;2023-07-22T11:51:52;11.40;;;4.90;;
12348;SDS011;5974;42.710;27.258;2023-07-22T11:54:21;9.73;;;5.00;;
12348;SDS011;5974;42.710;27.258;2023-07-22T11:56:48;9.23;;;4.80;;
12348;SDS011;5974;42.710;27.258;2023-07-22T11:59:15;9.95;;;4.55;;
12348;SDS011;5974;42.710;27.258;2023-07-22T12:01:43;7.00;;;4.60;;
12348;SDS011;5974;42.710;27.258;2023-07-22T12:04:11;9.48;;;5.05;;
12348;SDS011;5974;42.710;27.258;2023-07-22T12:06:39;6.35;;;4.45;;
12348;SDS011;5974;42.710;27.258;2023-07-22T12:09:08;10.98;;;4.88;;
12348;SDS011;5974;42.710;27.258;2023-07-22T12:11:36;10.95;;;5.07;;
12348;SDS011;5974;42.710;27.258;2023-07-22T12:14:07;8.90;;;4.38;;
12348;SDS011;5974;42.710;27.258;2023-07-22T12:16:36;8.20;;;5.07;;
12348;SDS011;5974;42.710;27.258;2023-07-22T12:19:03;8.32;;;4.85;;
12348;SDS011;5974;42.710;27.258;2023-07-22T12:21:31;14.43;;;4.88;;
12348;SDS011;5974;42.710;27.258;2023-07-22T12:23:58;9.80;;;4.75;;
12348;SDS011;5974;42.710;27.258;2023-07-22T12:26:26;9.85;;;4.93;;
12348;SDS011;5974;42.710;27.258;2023-07-22T12:28:53;10.00;;;4.65;;
12348;SDS011;5974;42.710;27.258;2023-07-22T12:31:20;8.75;;;5.28;;
12348;SDS011;5974;42.710;27.258;2023-07-22T12:33:47;11.40;;;4.72;;
12348;SDS011;5974;42.710;27.258;2023-07-22T12:36:15;11.75;;;5.00;;
12348;SDS011;5974;42.710;27.258;2023-07-22T12:38:41;14.55;;;5.10;;
12348;SDS011;5974;42.710;27.258;2023-07-22T12:41:08;11.43;;;4.75;;
12348;SDS011;5974;42.710;27.258;2023-07-22T12:43:36;13.30;;;4.93;;
12348;SDS011;5974;42.710;27.258;2023-07-22T12:46:03;12.43;;;4.78;;
12348;SDS011;5974;42.710;27.258;2023-07-22T12:48:30;12.40;;;5.38;;
12348;SDS011;5974;42.710;27.258;2023-07-22T12:50:57;15.27;;;5.38;;
12348;SDS011;5974;42.710;27.258;2023-07-22T12:53:24;8.60;;;4.75;;
12348;SDS011;5974;42.710;27.258;2023-07-22T12:55:51;9.38;;;4.90;;
12348;SDS011;5974;42.710;27.258;2023-07-22T12:58:18;12.27;;;5.28;;
12348;SDS011;5974;42.710;27.258;2023-07-22T13:00:47;10.60;;;4.50;;
12348;SDS011;5974;42.710;27.258;2023-07-22T13:03:14;11.20;;;5.30;;
12348;SDS011;5974;42.710;27.258;2023-07-22T13:05:40;27.35;;;5.78;;
12348;SDS011;5974;42.710;27.258;2023-07-22T13:08:07;13.45;;;5.53;;
12348;SDS011;5974;42.710;27.258;2023-07-22T13:10:34;18.63;;;5.25;;
12348;SDS011;5974;42.710;27.258;2023-07-22T13:13:03;13.77;;;5.38;;
12348;SDS011;5974;42.710;27.258;2023-07-22T13:15:30;10.88;;;4.80;;
12348;SDS011;5974;42.710;27.258;2023-07-22T13:17:59;15.80;;;4.95;;
12348;SDS011;5974;42.710;27.258;2023-07-22T13:20:25;14.15;;;5.15;;
12348;SDS011;5974;42.710;27.258;2023-07-22T13:22:52;8.45;;;4.88;;
12348;SDS011;5974;42.710;27.258;2023-07-22T13:25:19;9.85;;;5.25;;
12348;SDS011;5974;42.710;27.258;2023-07-22T13:27:46;16.70;;;5.35;;
12348;SDS011;5974;42.710;27.258;2023-07-22T13:30:13;12.25;;;5.13;;
12348;SDS011;5974;42.710;27.258;2023-07-22T13:32:40;12.45;;;5.45;;
12348;SDS011;5974;42.710;27.258;2023-07-22T13:35:08;14.75;;;5.28;;
12348;SDS011;5974;42.710;27.258;2023-07-22T13:37:35;14.77;;;5.30;;
12348;SDS011;5974;42.710;27.258;2023-07-22T13:40:03;23.65;;;5.72;;
12348;SDS011;5974;42.710;27.258;2023-07-22T13:42:35;23.50;;;6.00;;
12348;SDS011;5974;42.710;27.258;2023-07-22T13:45:02;19.13;;;5.53;;
12348;SDS011;5974;42.710;27.258;2023-07-22T13:47:29;10.10;;;4.78;;
12348;SDS011;5974;42.710;27.258;2023-07-22T13:49:56;13.23;;;4.72;;
12348;SDS011;5974;42.710;27.258;2023-07-22T13:52:24;9.43;;;4.65;;
12348;SDS011;5974;42.710;27.258;2023-07-22T13:54:51;9.30;;;4.95;;
12348;SDS011;5974;42.710;27.258;2023-07-22T13:57:18;10.32;;;4.70;;
12348;SDS011;5974;42.710;27.258;2023-07-22T13:59:45;5.82;;;4.00;;
12348;SDS011;5974;42.710;27.258;2023-07-22T14:02:12;8.57;;;4.57;;
12348;SDS011;5974;42.710;27.258;2023-07-22T14:04:39;5.95;;;4.30;;
12348;SDS011;5974;42.710;27.258;2023-07-22T14:07:06;6.80;;;4.18;;
12348;SDS011;5974;42.710;27.258;2023-07-22T14:09:34;5.05;;;4.18;;
12348;SDS011;5974;42.710;27.258;2023-07-22T14:12:01;7.82;;;4.35;;
12348;SDS011;5974;42.710;27.258;2023-07-22T14:14:28;6.75;;;4.55;;
12348;SDS011;5974;42.710;27.258;2023-07-22T14:16:55;6.28;;;4.60;;
12348;SDS011;5974;42.710;27.258;2023-07-22T14:19:24;8.40;;;4.43;;
12348;SDS011;5974;42.710;27.258;2023-07-22T14:21:51;7.93;;;4.15;;
12348;SDS011;5974;42.710;27.258;2023-07-22T14:24:18;6.15;;;4.32;;
12348;SDS011;5974;42.710;27.258;2023-07-22T14:26:46;11.02;;;4.32;;
12348;SDS011;5974;42.710;27.258;2023-07-22T14:29:13;5.65;;;4.47;;
12348;SDS011;5974;42.710;27.258;2023-07-22T14:31:41;8.80;;;4.43;;
12348;SDS011;5974;42.710;27.258;2023-07-22T14:34:09;7.22;;;4.32;;
12348;SDS011;5974;42.710;27.258;2023-07-22T14:36:36;7.80;;;4.38;;
12348;SDS011;5974;42.710;27.258;2023-07-22T14:39:02;9.27;;;4.60;;
12348;SDS011;5974;42.710;27.258;2023-07-22T14:41:29;7.70;;;4.88;;
12348;SDS011;5974;42.710;27.258;2023-07-22T14:43:58;6.90;;;4.60;;
12348;SDS011;5974;42.710;27.258;2023-07-22T14:46:25;9.20;;;4.40;;